Time;durP1;ratioP1;P1;durP2;ratioP2;P2;SDS_P1;SDS_P2;PMS_P1;PMS_P2;Temp;Humidity;BMP_temperature;BMP_pressure;BME280_temperature;BME280_humidity;BME280_pressure;Samples;Min_cycle;Max_cycle;Signal;HPM_P1;HPM_P2
2023/10/22 00:02:24;;;;;;;3.88;0.50;;;12.00;99.90;;;;;;5031757;28;20044;-77
2023/10/22 00:04:50;;;;;;;4.57;1.15;;;12.00;99.90;;;;;;5025259;28;20045;-78
2023/10/22 00:07:16;;;;;;;5.55;1.00;;;12.10;99.90;;;;;;5042495;28;20064;-77
2023/10/22 00:09:42;;;;;;;9.02;1.10;;;12.10;99.90;;;;;;5030915;28;20041;-77
2023/10/22 00:12:08;;;;;;;8.93;1.05;;;12.10;99.90;;;;;;5040831;28;20044;-77
2023/10/22 00:14:33;;;;;;;3.97;0.90;;;12.10;99.90;;;;;;5026761;28;20582;-77
2023/10/22 00:16:59;;;;;;;2.13;0.70;;;12.10;99.90;;;;;;5049975;28;20037;-78
2023/10/22 00:19:25;;;;;;;6.25;0.80;;;12.20;99.90;;;;;;5045144;28;20036;-77
2023/10/22 00:21:51;;;;;;;2.10;0.63;;;12.20;99.90;;;;;;5052979;28;20051;-78
2023/10/22 00:24:16;;;;;;;5.57;0.88;;;12.20;99.90;;;;;;5034290;28;20068;-78
2023/10/22 00:26:42;;;;;;;7.03;1.00;;;12.20;99.90;;;;;;5028562;28;20482;-77
2023/10/22 00:29:07;;;;;;;5.97;0.95;;;12.30;99.90;;;;;;5049825;28;20037;-77
2023/10/22 00:31:33;;;;;;;2.65;0.70;;;12.30;99.90;;;;;;5042137;28;20498;-77
2023/10/22 00:33:59;;;;;;;1.88;0.65;;;12.30;99.90;;;;;;5040028;28;20052;-78
2023/10/22 00:36:24;;;;;;;3.00;0.77;;;12.30;99.90;;;;;;5059784;28;20479;-78
2023/10/22 00:38:51;;;;;;;3.25;0.68;;;12.40;99.90;;;;;;5046917;28;20069;-78
2023/10/22 00:41:16;;;;;;;3.78;0.60;;;12.40;99.90;;;;;;5051309;28;20078;-78
2023/10/22 00:43:42;;;;;;;6.13;0.60;;;12.40;99.90;;;;;;5049795;28;20057;-77
2023/10/22 00:46:24;;;;;;;1.85;0.73;;;12.40;99.90;;;;;;5029217;28;20037;-78
2023/10/22 00:48:52;;;;;;;3.50;0.60;;;12.50;99.90;;;;;;5038589;28;20448;-77
2023/10/22 00:51:18;;;;;;;1.98;0.60;;;12.50;99.90;;;;;;5043002;28;20048;-77
2023/10/22 00:53:45;;;;;;;2.40;0.63;;;12.50;99.90;;;;;;5023067;28;20404;-77
2023/10/22 00:56:11;;;;;;;4.85;0.80;;;12.60;99.90;;;;;;5039870;28;20792;-77
2023/10/22 00:58:37;;;;;;;1.95;0.55;;;12.60;99.90;;;;;;5046865;28;20552;-77
2023/10/22 01:01:07;;;;;;;2.67;0.95;;;12.60;99.90;;;;;;5029703;28;20040;-77
2023/10/22 01:03:34;;;;;;;1.00;0.50;;;12.60;99.90;;;;;;5063732;28;20055;-77
2023/10/22 01:06:02;;;;;;;1.20;0.40;;;12.70;99.90;;;;;;5028208;28;20081;-77
2023/10/22 01:08:28;;;;;;;4.50;0.50;;;12.70;99.90;;;;;;5046145;28;20045;-77
2023/10/22 01:11:06;;;;;;;3.35;0.63;;;12.70;99.90;;;;;;5034414;28;20039;-77
2023/10/22 01:13:33;;;;;;;3.60;0.80;;;12.70;99.90;;;;;;5020039;28;20036;-77
2023/10/22 01:15:58;;;;;;;3.28;0.85;;;12.70;99.90;;;;;;5026366;28;20078;-77
2023/10/22 01:18:24;;;;;;;4.35;1.52;;;12.70;99.90;;;;;;5043901;28;20037;-77
2023/10/22 01:20:50;;;;;;;4.05;0.70;;;12.70;99.90;;;;;;5021043;28;20428;-77
2023/10/22 01:23:16;;;;;;;2.47;0.60;;;12.70;99.90;;;;;;5030656;28;20049;-77
2023/10/22 01:25:41;;;;;;;2.78;0.60;;;12.70;99.90;;;;;;5048177;28;20037;-77
2023/10/22 01:28:07;;;;;;;7.00;1.02;;;12.70;99.90;;;;;;5059892;28;20041;-77
2023/10/22 01:30:33;;;;;;;1.40;0.60;;;12.70;99.90;;;;;;5031316;28;20041;-77
2023/10/22 01:32:58;;;;;;;3.75;0.70;;;12.60;99.90;;;;;;5035923;28;20511;-77
2023/10/22 01:35:24;;;;;;;2.97;0.82;;;12.40;99.90;;;;;;5040897;28;20491;-78
2023/10/22 01:37:50;;;;;;;1.20;0.50;;;12.30;99.90;;;;;;5047101;28;20037;-78
2023/10/22 01:40:15;;;;;;;3.28;0.85;;;12.20;99.90;;;;;;5019072;28;20041;-78
2023/10/22 01:42:41;;;;;;;1.13;0.47;;;12.00;99.90;;;;;;5050552;28;20538;-78
2023/10/22 01:45:07;;;;;;;6.72;0.65;;;11.80;99.90;;;;;;5046509;28;20124;-79
2023/10/22 01:47:33;;;;;;;1.73;0.57;;;11.80;99.90;;;;;;5040844;28;20036;-78
2023/10/22 01:49:58;;;;;;;2.03;0.47;;;11.70;99.90;;;;;;5032815;28;20045;-79
2023/10/22 01:52:24;;;;;;;2.40;0.80;;;11.70;99.90;;;;;;5039088;28;20040;-79
2023/10/22 01:54:50;;;;;;;3.97;0.70;;;11.70;99.90;;;;;;5035226;28;20045;-79
2023/10/22 01:57:16;;;;;;;3.10;0.75;;;11.60;99.90;;;;;;5053395;28;20044;-79
2023/10/22 01:59:42;;;;;;;2.42;0.93;;;11.60;99.90;;;;;;5034915;28;20041;-79
2023/10/22 02:02:08;;;;;;;3.42;0.60;;;11.60;99.90;;;;;;5035150;28;20403;-79
2023/10/22 02:04:34;;;;;;;5.68;0.77;;;11.60;99.90;;;;;;5036584;28;20033;-79
2023/10/22 02:06:59;;;;;;;4.65;0.70;;;11.60;99.90;;;;;;5026050;28;20308;-79
2023/10/22 02:09:26;;;;;;;3.10;1.00;;;11.50;99.90;;;;;;5028540;28;20037;-79
2023/10/22 02:11:53;;;;;;;3.38;1.00;;;11.50;99.90;;;;;;5025040;28;20048;-79
2023/10/22 02:14:19;;;;;;;3.50;1.00;;;11.60;99.90;;;;;;5031102;28;20037;-79
2023/10/22 02:16:45;;;;;;;2.30;0.88;;;11.50;99.90;;;;;;5043709;28;20064;-78
2023/10/22 02:19:11;;;;;;;3.15;1.08;;;11.50;99.90;;;;;;5033860;28;20140;-79
2023/10/22 02:21:36;;;;;;;6.50;1.80;;;11.50;99.90;;;;;;5043307;28;20537;-79
2023/10/22 02:24:02;;;;;;;4.75;0.93;;;11.50;99.90;;;;;;5044259;28;20037;-79
2023/10/22 02:26:28;;;;;;;4.72;0.98;;;11.50;99.90;;;;;;5046023;28;20620;-80
2023/10/22 02:28:53;;;;;;;4.22;1.10;;;11.50;99.90;;;;;;5054107;28;20064;-80
2023/10/22 02:31:19;;;;;;;3.67;1.60;;;11.50;99.90;;;;;;5035892;28;20045;-80
2023/10/22 02:33:45;;;;;;;3.42;1.20;;;11.60;99.90;;;;;;5046909;28;20037;-78
2023/10/22 02:36:10;;;;;;;5.55;1.20;;;11.40;99.90;;;;;;5042894;28;20044;-79
2023/10/22 02:38:37;;;;;;;4.85;1.38;;;11.50;99.90;;;;;;5042935;28;20032;-79
2023/10/22 02:41:02;;;;;;;3.22;1.00;;;11.40;99.90;;;;;;5031259;28;20552;-79
2023/10/22 02:43:28;;;;;;;3.45;1.40;;;11.40;99.90;;;;;;5029078;28;20069;-79
2023/10/22 02:45:55;;;;;;;2.88;0.90;;;11.40;99.90;;;;;;5031920;28;20044;-79
2023/10/22 02:48:23;;;;;;;3.80;1.23;;;11.50;99.90;;;;;;5051996;28;20039;-79
2023/10/22 02:50:49;;;;;;;2.97;1.50;;;11.50;99.90;;;;;;5047140;28;20124;-79
2023/10/22 02:53:16;;;;;;;4.32;1.30;;;11.40;99.90;;;;;;5031491;28;20048;-79
2023/10/22 02:55:42;;;;;;;2.22;1.23;;;11.50;99.90;;;;;;5042205;28;20135;-79
2023/10/22 02:58:08;;;;;;;2.92;0.93;;;11.50;99.90;;;;;;5032831;28;20522;-79
2023/10/22 03:00:35;;;;;;;3.00;1.13;;;11.50;99.90;;;;;;5048268;28;20037;-78
2023/10/22 03:03:04;;;;;;;4.18;1.35;;;11.50;99.90;;;;;;5057223;28;20816;-78
2023/10/22 03:05:34;;;;;;;3.53;1.02;;;11.50;99.90;;;;;;5047385;28;20762;-78
2023/10/22 03:08:00;;;;;;;1.63;0.98;;;11.50;99.90;;;;;;5027376;28;20041;-78
2023/10/22 03:10:26;;;;;;;3.58;1.35;;;11.50;99.90;;;;;;5027240;28;20052;-78
2023/10/22 03:12:52;;;;;;;2.03;1.00;;;11.50;99.90;;;;;;5041313;28;20765;-78
2023/10/22 03:15:18;;;;;;;2.63;0.80;;;11.50;99.90;;;;;;5026710;28;20051;-78
2023/10/22 03:17:44;;;;;;;5.28;1.00;;;11.50;99.90;;;;;;5049037;28;20050;-77
2023/10/22 03:20:10;;;;;;;2.08;1.35;;;11.60;99.90;;;;;;5041660;28;20041;-77
2023/10/22 03:22:36;;;;;;;3.45;0.98;;;11.50;99.90;;;;;;5031380;28;20041;-78
2023/10/22 03:25:07;;;;;;;1.70;0.70;;;11.60;99.90;;;;;;5047425;28;20048;-79
2023/10/22 03:27:33;;;;;;;2.97;0.85;;;11.60;99.90;;;;;;5041950;28;20116;-80
2023/10/22 03:29:59;;;;;;;3.72;1.00;;;11.60;99.90;;;;;;5042647;28;20045;-80
2023/10/22 03:32:25;;;;;;;4.80;0.90;;;11.60;99.90;;;;;;5042655;28;20044;-79
2023/10/22 03:34:50;;;;;;;2.63;0.85;;;11.60;99.90;;;;;;5041974;28;20084;-79
2023/10/22 03:37:17;;;;;;;1.30;1.05;;;11.60;99.90;;;;;;5020668;28;20045;-80
2023/10/22 03:39:43;;;;;;;5.07;1.08;;;11.60;99.90;;;;;;5035159;28;20087;-78
2023/10/22 03:42:08;;;;;;;2.83;0.98;;;11.60;99.90;;;;;;5017397;28;20033;-78
2023/10/22 03:44:34;;;;;;;3.17;1.05;;;11.60;99.90;;;;;;5042675;28;20114;-78
2023/10/22 03:47:00;;;;;;;5.25;1.10;;;11.60;99.90;;;;;;5044377;28;20137;-78
2023/10/22 03:49:25;;;;;;;3.17;0.80;;;11.60;99.90;;;;;;5019653;28;20475;-78
2023/10/22 03:51:51;;;;;;;2.35;0.98;;;11.60;99.90;;;;;;5022528;28;20588;-78
2023/10/22 03:54:16;;;;;;;4.15;1.90;;;11.60;99.90;;;;;;5024641;28;20049;-78
2023/10/22 03:56:42;;;;;;;3.65;1.00;;;11.60;99.90;;;;;;5033248;28;20041;-78
2023/10/22 03:59:08;;;;;;;3.60;1.10;;;11.60;99.90;;;;;;5031709;28;20040;-78
2023/10/22 04:01:33;;;;;;;5.10;0.95;;;11.60;99.90;;;;;;5059129;28;20163;-78
2023/10/22 04:03:59;;;;;;;3.88;1.08;;;11.70;99.90;;;;;;5050424;28;20029;-78
2023/10/22 04:06:24;;;;;;;2.40;1.52;;;11.70;99.90;;;;;;5052924;28;20132;-77
2023/10/22 04:08:50;;;;;;;1.40;0.80;;;11.70;99.90;;;;;;5060937;28;20039;-78
2023/10/22 04:11:20;;;;;;;2.30;1.00;;;11.70;99.90;;;;;;5052110;28;20732;-79
2023/10/22 04:13:46;;;;;;;2.10;0.98;;;11.70;99.90;;;;;;5051026;28;20087;-77
2023/10/22 04:16:17;;;;;;;3.20;1.00;;;11.70;99.90;;;;;;5026477;28;20048;-79
2023/10/22 04:18:43;;;;;;;3.35;1.13;;;11.80;99.90;;;;;;5054841;28;20485;-78
2023/10/22 04:21:15;;;;;;;2.05;1.30;;;11.70;99.90;;;;;;5052021;28;20044;-79
2023/10/22 04:23:42;;;;;;;2.30;1.05;;;11.70;99.90;;;;;;5053511;28;20845;-79
2023/10/22 04:26:14;;;;;;;3.83;1.10;;;11.70;99.90;;;;;;5034559;28;20075;-78
2023/10/22 04:28:45;;;;;;;4.30;1.17;;;11.70;99.90;;;;;;5052959;28;20425;-79
2023/10/22 04:31:10;;;;;;;1.58;0.82;;;11.70;99.90;;;;;;5016404;28;20037;-79
2023/10/22 04:33:36;;;;;;;3.72;0.93;;;11.70;99.90;;;;;;5028834;28;20377;-79
2023/10/22 04:36:03;;;;;;;7.82;1.15;;;11.70;99.90;;;;;;5027240;28;20041;-79
2023/10/22 04:38:30;;;;;;;2.17;1.02;;;11.80;99.90;;;;;;5048824;28;20065;-79
2023/10/22 04:40:56;;;;;;;4.35;1.38;;;11.80;99.90;;;;;;5035048;28;20050;-79
2023/10/22 04:43:21;;;;;;;1.77;1.30;;;11.70;99.90;;;;;;5039983;28;20615;-79
2023/10/22 04:45:50;;;;;;;2.75;0.90;;;11.70;99.90;;;;;;5044738;28;20042;-79
2023/10/22 04:48:17;;;;;;;1.83;1.10;;;11.80;99.90;;;;;;5033894;28;20124;-79
2023/10/22 04:50:44;;;;;;;3.58;1.10;;;11.80;99.90;;;;;;5044294;28;20485;-79
2023/10/22 04:53:10;;;;;;;1.85;1.30;;;11.80;99.90;;;;;;5039704;28;20049;-79
2023/10/22 04:55:36;;;;;;;2.40;1.00;;;11.80;99.90;;;;;;5040341;28;20669;-78
2023/10/22 04:58:02;;;;;;;1.58;1.10;;;11.80;99.90;;;;;;5048862;28;20045;-79
2023/10/22 05:00:28;;;;;;;1.50;0.90;;;11.80;99.90;;;;;;5030927;28;20028;-78
2023/10/22 05:02:54;;;;;;;1.88;1.17;;;11.70;99.90;;;;;;5043346;28;20381;-79
2023/10/22 05:05:21;;;;;;;4.80;1.27;;;11.80;99.90;;;;;;5036851;28;20033;-80
2023/10/22 05:07:49;;;;;;;4.35;1.60;;;11.80;99.90;;;;;;5044456;28;20066;-79
2023/10/22 05:10:15;;;;;;;2.95;1.17;;;11.80;99.90;;;;;;5062829;28;20041;-79
2023/10/22 05:12:40;;;;;;;4.65;1.40;;;11.80;99.90;;;;;;5029400;28;20032;-79
2023/10/22 05:15:08;;;;;;;2.25;1.27;;;11.80;99.90;;;;;;5025235;28;20072;-79
2023/10/22 05:17:33;;;;;;;2.00;1.15;;;11.80;99.90;;;;;;5056753;28;20060;-79
2023/10/22 05:19:59;;;;;;;2.22;1.33;;;11.90;99.90;;;;;;5045372;28;20045;-79
2023/10/22 05:22:25;;;;;;;2.75;1.83;;;11.80;99.90;;;;;;5036787;28;20124;-80
2023/10/22 05:24:50;;;;;;;2.15;1.20;;;11.80;99.90;;;;;;5037963;28;20452;-79
2023/10/22 05:27:17;;;;;;;2.60;1.60;;;11.90;99.90;;;;;;5039783;28;20055;-79
2023/10/22 05:29:43;;;;;;;4.03;1.40;;;11.80;99.90;;;;;;5028691;28;20040;-79
2023/10/22 05:32:09;;;;;;;1.92;1.45;;;11.90;99.90;;;;;;5044885;28;20045;-79
2023/10/22 05:34:35;;;;;;;3.40;1.52;;;11.90;99.90;;;;;;5052682;28;20039;-78
2023/10/22 05:37:00;;;;;;;3.22;1.83;;;11.90;99.90;;;;;;5031246;28;20068;-77
2023/10/22 05:39:26;;;;;;;3.53;1.75;;;11.90;99.90;;;;;;5039396;28;20044;-78
2023/10/22 05:41:51;;;;;;;4.13;2.13;;;11.80;99.90;;;;;;5037242;28;20040;-79
2023/10/22 05:44:19;;;;;;;5.00;1.98;;;12.00;99.90;;;;;;5032256;28;20045;-78
2023/10/22 05:46:44;;;;;;;2.88;2.30;;;12.00;99.90;;;;;;5047100;28;20075;-78
2023/10/22 05:49:11;;;;;;;3.50;1.80;;;12.00;99.90;;;;;;5047643;28;20241;-78
2023/10/22 05:51:38;;;;;;;3.05;1.58;;;12.00;99.90;;;;;;5040010;28;20044;-78
2023/10/22 05:54:04;;;;;;;4.25;1.60;;;12.00;99.90;;;;;;5054869;28;20090;-79
2023/10/22 05:56:33;;;;;;;2.22;1.40;;;12.10;99.90;;;;;;5054319;28;20450;-79
2023/10/22 05:58:59;;;;;;;1.27;1.05;;;12.10;99.90;;;;;;5041096;28;20040;-79
2023/10/22 06:01:25;;;;;;;2.05;0.80;;;12.10;99.90;;;;;;5036586;28;21738;-80
2023/10/22 06:03:51;;;;;;;1.05;0.60;;;12.20;99.90;;;;;;5040027;28;20124;-80
2023/10/22 06:06:20;;;;;;;2.97;0.55;;;12.20;99.90;;;;;;5043354;28;20112;-80
2023/10/22 06:08:46;;;;;;;2.15;0.40;;;12.10;99.90;;;;;;5046435;28;20387;-80
2023/10/22 06:11:12;;;;;;;1.52;0.50;;;12.20;99.90;;;;;;5028666;28;20094;-79
2023/10/22 06:13:38;;;;;;;1.13;0.60;;;12.20;99.90;;;;;;5048264;28;20085;-80
2023/10/22 06:16:04;;;;;;;1.80;0.57;;;12.20;99.90;;;;;;5038059;28;20038;-80
2023/10/22 06:18:30;;;;;;;1.27;0.50;;;12.10;99.90;;;;;;5030022;28;20029;-80
2023/10/22 06:20:55;;;;;;;1.17;0.40;;;12.10;99.90;;;;;;5031476;28;20065;-80
2023/10/22 06:23:21;;;;;;;2.60;0.50;;;12.10;99.90;;;;;;5031458;28;20080;-81
2023/10/22 06:25:47;;;;;;;1.23;0.50;;;12.00;99.90;;;;;;5042133;28;20566;-80
2023/10/22 06:28:13;;;;;;;2.47;0.60;;;11.90;99.90;;;;;;5045820;28;20118;-80
2023/10/22 06:30:39;;;;;;;1.67;0.70;;;11.70;99.90;;;;;;5034866;28;20602;-80
2023/10/22 06:33:04;;;;;;;4.28;0.88;;;11.70;99.90;;;;;;5019325;28;20040;-79
2023/10/22 06:35:30;;;;;;;6.72;0.80;;;11.60;99.90;;;;;;5043583;28;20037;-79
2023/10/22 06:37:56;;;;;;;4.57;1.05;;;11.60;99.90;;;;;;5021403;28;20152;-79
2023/10/22 06:40:23;;;;;;;4.45;1.05;;;11.60;99.90;;;;;;5028517;28;20262;-78
2023/10/22 06:42:49;;;;;;;6.68;1.00;;;11.50;99.90;;;;;;5025255;28;20141;-78
2023/10/22 06:45:18;;;;;;;3.35;1.20;;;11.50;99.90;;;;;;5045200;28;20048;-79
2023/10/22 06:47:46;;;;;;;4.10;1.15;;;11.50;99.90;;;;;;5027899;28;20690;-79
2023/10/22 06:50:13;;;;;;;3.72;1.33;;;11.60;99.90;;;;;;5040593;28;20056;-79
2023/10/22 06:52:42;;;;;;;2.47;1.17;;;11.50;99.90;;;;;;5026574;28;20041;-79
2023/10/22 06:55:08;;;;;;;2.95;1.00;;;11.60;99.90;;;;;;5026775;28;20053;-79
2023/10/22 06:57:34;;;;;;;3.05;1.00;;;11.60;99.90;;;;;;5047968;28;20055;-79
2023/10/22 07:00:00;;;;;;;7.97;1.27;;;11.50;99.90;;;;;;5030076;28;20551;-79
2023/10/22 07:02:26;;;;;;;2.35;0.75;;;11.60;99.90;;;;;;5043883;28;20072;-79
2023/10/22 07:04:53;;;;;;;4.10;1.05;;;11.60;99.90;;;;;;5025849;28;20163;-79
2023/10/22 07:07:19;;;;;;;3.65;1.20;;;11.60;99.90;;;;;;5034700;28;20032;-79
2023/10/22 07:09:45;;;;;;;4.70;1.63;;;11.60;99.90;;;;;;5049419;28;20120;-79
2023/10/22 07:12:10;;;;;;;4.47;1.42;;;11.60;99.90;;;;;;5036257;28;20128;-79
2023/10/22 07:14:36;;;;;;;3.83;1.20;;;11.50;99.90;;;;;;5030482;28;20406;-79
2023/10/22 07:17:02;;;;;;;5.85;1.20;;;11.60;99.90;;;;;;5046047;28;20045;-78
2023/10/22 07:19:28;;;;;;;2.35;1.00;;;11.60;99.90;;;;;;5040739;28;20520;-78
2023/10/22 07:21:53;;;;;;;2.60;1.30;;;11.50;99.90;;;;;;5034873;28;20037;-78
2023/10/22 07:24:19;;;;;;;4.40;1.70;;;11.50;99.90;;;;;;5042236;28;20036;-78
2023/10/22 07:26:45;;;;;;;5.20;1.48;;;11.40;99.90;;;;;;5051852;28;20068;-79
2023/10/22 07:29:12;;;;;;;4.43;1.30;;;11.40;99.90;;;;;;5021971;28;20449;-78
2023/10/22 07:31:38;;;;;;;5.00;1.67;;;11.30;99.90;;;;;;5049029;28;20120;-78
2023/10/22 07:34:04;;;;;;;6.20;1.80;;;11.30;99.90;;;;;;5037432;28;20040;-78
2023/10/22 07:36:30;;;;;;;4.40;2.10;;;11.30;99.90;;;;;;5031196;28;20038;-78
2023/10/22 07:38:55;;;;;;;7.60;2.30;;;11.30;99.90;;;;;;5027696;28;20439;-78
2023/10/22 07:41:22;;;;;;;8.50;2.53;;;11.20;99.90;;;;;;5033764;28;20075;-77
2023/10/22 07:43:48;;;;;;;5.93;2.38;;;11.30;99.90;;;;;;5042099;28;20052;-77
2023/10/22 07:46:15;;;;;;;8.75;2.70;;;11.30;99.90;;;;;;5052044;28;20033;-78
2023/10/22 07:48:42;;;;;;;5.85;2.63;;;11.40;99.90;;;;;;5036193;28;20491;-79
2023/10/22 07:51:12;;;;;;;9.63;2.83;;;11.30;99.90;;;;;;5049973;28;20041;-79
2023/10/22 07:53:38;;;;;;;8.43;2.83;;;11.40;99.90;;;;;;5045381;28;20045;-78
2023/10/22 07:56:05;;;;;;;7.20;3.22;;;11.40;99.90;;;;;;5029770;28;20054;-76
2023/10/22 07:58:32;;;;;;;6.75;3.13;;;11.50;99.90;;;;;;5045187;28;20116;-78
2023/10/22 08:00:58;;;;;;;6.90;3.25;;;11.60;99.90;;;;;;5055492;28;20037;-79
2023/10/22 08:03:23;;;;;;;8.27;3.50;;;11.60;99.90;;;;;;5042981;28;20041;-78
2023/10/22 08:05:49;;;;;;;6.65;3.30;;;11.70;99.90;;;;;;5059486;28;20487;-78
2023/10/22 08:08:14;;;;;;;5.78;2.92;;;11.70;99.90;;;;;;5046723;28;20056;-76
2023/10/22 08:10:40;;;;;;;8.05;2.95;;;11.70;99.90;;;;;;5028181;28;20037;-77
2023/10/22 08:13:06;;;;;;;6.03;2.45;;;11.80;99.90;;;;;;5044532;28;20049;-78
2023/10/22 08:15:34;;;;;;;7.35;2.72;;;11.70;99.90;;;;;;5054491;28;20518;-78
2023/10/22 08:17:59;;;;;;;7.43;2.72;;;11.70;99.90;;;;;;5047439;28;20217;-78
2023/10/22 08:20:25;;;;;;;7.72;2.70;;;11.70;99.90;;;;;;5031129;28;20460;-78
2023/10/22 08:22:50;;;;;;;9.02;2.80;;;11.70;99.90;;;;;;5044661;28;20107;-78
2023/10/22 08:25:16;;;;;;;6.03;3.10;;;11.80;99.90;;;;;;5055579;28;20120;-77
2023/10/22 08:27:42;;;;;;;9.38;2.80;;;11.80;99.90;;;;;;5054620;28;20041;-79
2023/10/22 08:30:08;;;;;;;7.05;2.40;;;11.80;99.90;;;;;;5033427;28;20044;-77
2023/10/22 08:32:34;;;;;;;5.93;2.83;;;11.80;99.90;;;;;;5035090;28;20041;-77
2023/10/22 08:35:00;;;;;;;5.75;1.90;;;11.90;99.90;;;;;;5052147;28;20541;-77
2023/10/22 08:37:25;;;;;;;6.40;2.40;;;12.00;99.90;;;;;;5029116;28;20048;-77
2023/10/22 08:39:51;;;;;;;8.18;3.15;;;12.10;99.90;;;;;;5048493;28;20042;-77
2023/10/22 08:42:22;;;;;;;3.70;2.03;;;12.10;99.90;;;;;;5036444;28;20096;-76
2023/10/22 08:44:49;;;;;;;7.95;2.28;;;12.10;99.90;;;;;;5038795;28;20037;-78
2023/10/22 08:47:16;;;;;;;3.17;2.45;;;12.10;99.90;;;;;;5042436;28;20439;-76
2023/10/22 08:49:42;;;;;;;5.63;2.22;;;12.10;99.90;;;;;;5046680;28;20392;-77
2023/10/22 08:52:11;;;;;;;8.40;2.28;;;12.20;99.90;;;;;;5052409;28;20137;-77
2023/10/22 08:54:37;;;;;;;4.35;2.05;;;12.20;99.90;;;;;;5054238;28;20040;-76
2023/10/22 08:57:03;;;;;;;4.90;1.88;;;12.30;99.90;;;;;;5040418;28;20514;-76
2023/10/22 08:59:38;;;;;;;4.20;1.90;;;12.30;99.90;;;;;;5055735;28;20055;-77
2023/10/22 09:02:08;;;;;;;3.95;2.05;;;12.40;99.90;;;;;;5047337;28;20053;-76
2023/10/22 09:04:34;;;;;;;4.43;2.15;;;12.20;99.90;;;;;;5040261;28;20024;-76
2023/10/22 09:07:00;;;;;;;5.15;1.95;;;12.20;99.90;;;;;;5018909;28;20495;-77
2023/10/22 09:09:38;;;;;;;4.30;1.80;;;12.20;99.90;;;;;;5022871;28;20045;-77
2023/10/22 09:12:13;;;;;;;7.05;2.03;;;12.30;99.90;;;;;;5010633;28;20137;-78
2023/10/22 09:14:44;;;;;;;4.72;1.95;;;12.30;99.90;;;;;;5050461;28;20052;-78
2023/10/22 09:17:18;;;;;;;6.70;1.70;;;12.30;99.90;;;;;;5040608;28;20033;-78
2023/10/22 09:19:47;;;;;;;7.40;2.15;;;12.20;99.90;;;;;;5034340;28;20045;-77
2023/10/22 09:22:26;;;;;;;8.40;2.05;;;12.10;99.90;;;;;;5030400;28;20033;-77
2023/10/22 09:24:56;;;;;;;4.60;1.40;;;12.20;99.90;;;;;;5040885;28;20032;-77
2023/10/22 09:27:26;;;;;;;8.13;1.83;;;12.20;99.90;;;;;;5044185;28;20271;-77
2023/10/22 09:29:53;;;;;;;3.83;1.58;;;12.10;99.90;;;;;;5040193;28;20056;-77
2023/10/22 09:32:22;;;;;;;3.03;1.50;;;12.00;99.90;;;;;;5012147;28;20112;-78
2023/10/22 09:34:48;;;;;;;5.95;1.50;;;12.00;99.90;;;;;;5037348;28;20042;-78
2023/10/22 09:37:13;;;;;;;1.70;1.10;;;12.00;99.90;;;;;;5026630;28;20031;-78
2023/10/22 09:39:42;;;;;;;3.63;1.60;;;11.90;99.90;;;;;;5052147;28;20063;-77
2023/10/22 09:42:09;;;;;;;3.35;1.50;;;12.00;99.90;;;;;;5048419;28;20036;-78
2023/10/22 09:44:37;;;;;;;6.50;1.38;;;11.90;99.90;;;;;;5038896;28;20048;-77
2023/10/22 09:47:06;;;;;;;5.60;1.35;;;12.00;99.90;;;;;;5018589;28;20076;-77
2023/10/22 09:49:33;;;;;;;2.97;1.92;;;12.00;99.90;;;;;;5030909;28;20127;-77
2023/10/22 09:52:03;;;;;;;3.55;1.25;;;12.10;99.90;;;;;;5030479;28;20042;-78
2023/10/22 09:54:41;;;;;;;4.28;1.50;;;12.30;99.90;;;;;;5034220;28;20080;-77
2023/10/22 09:57:13;;;;;;;4.60;1.30;;;12.50;99.90;;;;;;5034547;28;20049;-77
2023/10/22 09:59:40;;;;;;;2.35;1.20;;;12.60;99.90;;;;;;5021239;28;20056;-77
2023/10/22 10:02:09;;;;;;;4.75;1.20;;;12.40;99.90;;;;;;5047034;28;20025;-77
2023/10/22 10:04:37;;;;;;;2.03;0.90;;;12.20;99.90;;;;;;5025887;28;20104;-77
2023/10/22 10:07:03;;;;;;;3.55;1.70;;;12.10;99.90;;;;;;5023638;28;20551;-77
2023/10/22 10:09:30;;;;;;;2.55;1.48;;;12.10;99.90;;;;;;5026450;28;20048;-76
2023/10/22 10:11:58;;;;;;;3.35;0.98;;;12.20;99.90;;;;;;5038262;28;20048;-77
2023/10/22 10:14:36;;;;;;;2.70;1.00;;;12.40;99.90;;;;;;5043354;28;20041;-77
2023/10/22 10:17:03;;;;;;;3.13;1.13;;;12.50;99.90;;;;;;5029868;28;20041;-76
2023/10/22 10:19:29;;;;;;;4.05;0.95;;;12.60;99.90;;;;;;5040815;28;20610;-76
2023/10/22 10:21:54;;;;;;;1.73;0.70;;;12.70;99.90;;;;;;5033580;28;20041;-77
2023/10/22 10:24:25;;;;;;;1.35;0.82;;;12.70;99.90;;;;;;5038138;28;20548;-76
2023/10/22 10:27:11;;;;;;;3.00;0.70;;;12.70;99.90;;;;;;5046578;28;20048;-76
2023/10/22 10:29:37;;;;;;;5.07;1.23;;;12.70;99.90;;;;;;5044172;28;20037;-75
2023/10/22 10:32:12;;;;;;;0.98;0.50;;;12.90;99.90;;;;;;5043465;28;20086;-77
2023/10/22 10:34:40;;;;;;;2.17;0.60;;;13.00;99.90;;;;;;5026881;28;20116;-76
2023/10/22 10:37:09;;;;;;;1.55;0.52;;;12.90;99.90;;;;;;5048803;28;20063;-77
2023/10/22 10:39:37;;;;;;;1.02;0.50;;;12.90;99.90;;;;;;5036416;28;20032;-76
2023/10/22 10:42:03;;;;;;;2.10;0.63;;;13.10;99.90;;;;;;5025401;28;20040;-77
2023/10/22 10:44:30;;;;;;;1.02;0.60;;;13.10;99.90;;;;;;5055018;28;20036;-76
2023/10/22 10:47:22;;;;;;;1.20;0.63;;;12.70;99.90;;;;;;5030289;28;20032;-76
2023/10/22 10:50:10;;;;;;;1.00;0.50;;;12.50;99.90;;;;;;5023774;28;20057;-76
2023/10/22 10:52:42;;;;;;;1.92;0.55;;;12.30;99.90;;;;;;5043954;28;20090;-76
2023/10/22 10:55:19;;;;;;;2.35;0.30;;;12.10;99.90;;;;;;5035572;28;20060;-75
2023/10/22 10:57:50;;;;;;;1.42;0.50;;;12.00;99.90;;;;;;5036226;28;20045;-75
2023/10/22 11:00:27;;;;;;;2.05;0.60;;;11.90;99.90;;;;;;5043534;28;20120;-76
2023/10/22 11:02:53;;;;;;;5.15;0.98;;;12.00;99.90;;;;;;5056746;28;20075;-75
2023/10/22 11:05:39;;;;;;;2.78;0.80;;;12.00;99.90;;;;;;5018094;28;20033;-75
2023/10/22 11:08:13;;;;;;;1.42;0.60;;;12.00;99.90;;;;;;5027642;28;20037;-75
2023/10/22 11:10:38;;;;;;;4.28;0.93;;;12.10;99.90;;;;;;5029527;28;20038;-75
2023/10/22 11:13:06;;;;;;;2.83;1.20;;;12.40;99.90;;;;;;5017203;28;20041;-74
2023/10/22 11:15:33;;;;;;;1.67;0.70;;;13.10;99.90;;;;;;5036879;28;20071;-74
2023/10/22 11:18:04;;;;;;;0.82;0.47;;;13.60;99.90;;;;;;5028842;28;20041;-77
2023/10/22 11:20:30;;;;;;;1.08;0.52;;;14.10;99.90;;;;;;5041877;28;20567;-75
2023/10/22 11:22:57;;;;;;;2.45;1.25;;;14.20;99.90;;;;;;5033832;28;20124;-77
2023/10/22 11:25:24;;;;;;;1.63;0.80;;;14.50;99.90;;;;;;5038733;28;20095;-76
2023/10/22 11:27:49;;;;;;;6.18;0.70;;;14.60;99.90;;;;;;5036185;28;20080;-77
2023/10/22 11:30:38;;;;;;;2.30;0.60;;;14.80;99.90;;;;;;5038057;28;20527;-76
2023/10/22 11:33:08;;;;;;;2.42;0.60;;;14.90;99.90;;;;;;5028595;28;20052;-76
2023/10/22 11:35:36;;;;;;;1.85;0.65;;;15.20;99.90;;;;;;5038551;28;20091;-75
2023/10/22 11:38:02;;;;;;;4.05;1.42;;;15.40;99.90;;;;;;5042732;28;20041;-76
2023/10/22 11:40:39;;;;;;;3.90;0.88;;;15.50;99.90;;;;;;5022106;28;20033;-74
2023/10/22 11:43:16;;;;;;;1.67;0.90;;;15.40;99.90;;;;;;5024636;28;20043;-76
2023/10/22 11:45:55;;;;;;;5.40;1.77;;;15.40;99.90;;;;;;5018547;28;20107;-76
2023/10/22 11:48:29;;;;;;;4.95;1.40;;;15.50;99.90;;;;;;5026360;28;20040;-77
2023/10/22 11:51:00;;;;;;;2.85;0.88;;;15.50;99.90;;;;;;5052176;28;20363;-76
2023/10/22 11:53:42;;;;;;;4.70;1.20;;;15.40;93.40;;;;;;5038225;28;20040;-77
2023/10/22 11:56:07;;;;;;;1.65;0.82;;;15.20;1.00;;;;;;5041984;28;20057;-77
2023/10/22 11:58:33;;;;;;;1.02;0.60;;;15.40;99.90;;;;;;5033350;28;20495;-76
2023/10/22 12:00:59;;;;;;;3.97;1.42;;;15.50;99.90;;;;;;5038498;28;20575;-76
2023/10/22 12:03:24;;;;;;;1.50;0.70;;;15.90;66.00;;;;;;5030029;28;20029;-77
2023/10/22 12:05:50;;;;;;;1.73;0.70;;;16.00;1.00;;;;;;5021819;28;20037;-77
2023/10/22 12:08:16;;;;;;;2.15;0.32;;;15.70;1.00;;;;;;5066006;28;20128;-75
2023/10/22 12:10:42;;;;;;;1.50;0.32;;;15.30;99.90;;;;;;5041020;28;20041;-76
2023/10/22 12:13:07;;;;;;;1.40;0.30;;;14.80;1.00;;;;;;5035652;28;20048;-76
2023/10/22 12:15:34;;;;;;;0.60;0.30;;;14.30;1.00;;;;;;5035582;28;20067;-76
2023/10/22 12:17:59;;;;;;;1.92;0.30;;;14.00;1.00;;;;;;5034023;28;20033;-77
2023/10/22 12:20:25;;;;;;;1.17;0.30;;;13.70;1.00;;;;;;5025775;28;20043;-76
2023/10/22 12:22:51;;;;;;;1.02;0.20;;;13.50;1.00;;;;;;5022939;28;20111;-75
2023/10/22 12:25:16;;;;;;;1.77;0.30;;;13.40;1.00;;;;;;5031086;28;20063;-76
2023/10/22 12:27:42;;;;;;;0.40;0.20;;;13.30;1.00;;;;;;5028588;28;20513;-76
2023/10/22 12:30:08;;;;;;;3.35;0.38;;;13.20;1.00;;;;;;5052428;28;20052;-75
2023/10/22 12:32:34;;;;;;;0.68;0.30;;;13.10;12.30;;;;;;5030488;28;20045;-75
2023/10/22 12:35:00;;;;;;;0.40;0.30;;;13.10;23.20;;;;;;5030829;28;20426;-76
2023/10/22 12:37:26;;;;;;;1.50;0.47;;;13.10;44.20;;;;;;5028948;28;20060;-76
2023/10/22 12:39:52;;;;;;;0.82;0.32;;;13.00;14.00;;;;;;5036755;28;20037;-76
2023/10/22 12:42:17;;;;;;;0.30;0.20;;;12.90;27.70;;;;;;5015995;28;20037;-76
2023/10/22 12:44:44;;;;;;;2.35;0.40;;;12.80;1.00;;;;;;5034431;28;20102;-76
2023/10/22 12:47:12;;;;;;;1.90;0.45;;;12.80;1.00;;;;;;5047694;28;20041;-76
2023/10/22 12:49:39;;;;;;;2.30;0.68;;;12.70;14.00;;;;;;5030168;28;20040;-76